Terminal Aerodrome Forecast
Issued by NWS

Home | Current Version | Previous Version | Text Only | Print | Product List | Glossary On
Versions: 1 2 3 4 5 6 7 8 9 10 11 12 13 14
000
FTUS42 KTAE 142300
TAFECP
TAF
KECP 142320Z 1500/1524 16006KT P6SM FEW040 SCT250
     FM151200 20008KT P6SM VCTS SCT040CB BKN250
     FM151500 21012G18KT 4SM TSRA BKN035CB=

USA.gov is the U.S. government's official web portal to all federal, state and local government web resources and services.